Terminal Aerodrome Forecast
Issued by NWS Pocatello, ID

Home | Current Version | Previous Version | Text Only | Print | Product List | Glossary On
Versions: 1 2 3 4 5 6 7 8 9 10 11 12 13 14 15
000
FTUS45 KPIH 291720
TAFIDA
TAF
KIDA 291720Z 2918/3018 02008KT P6SM FEW200
     FM300000 20010KT P6SM VCTS SCT120 BKN150CB
     FM300800 34005KT P6SM BKN150=

USA.gov is the U.S. government's official web portal to all federal, state and local government web resources and services.